Time;durP1;ratioP1;P1;durP2;ratioP2;P2;SDS_P1;SDS_P2;PMS_P1;PMS_P2;Temp;Humidity;BMP_temperature;BMP_pressure;BME280_temperature;BME280_humidity;BME280_pressure;Samples;Min_cycle;Max_cycle;Signal;HPM_P1;HPM_P2
2022/09/09 00:00:14;;;;;;;;;;;20.70;97.10;20.80;99384.00;;;;347312;27;86206;-92
2022/09/09 00:00:26;;;;;;;;;;;20.70;97.10;20.90;99386.00;;;;350462;27;82565;-92
2022/09/09 00:00:37;;;;;;;;;;;20.70;97.10;20.90;99379.00;;;;346004;28;87240;-91
2022/09/09 00:00:55;;;;;;;;;;;20.70;97.20;20.80;99385.00;;;;346683;28;82577;-92
2022/09/09 00:01:34;;;;;;;;;;;20.70;97.10;20.80;99390.00;;;;346835;28;86537;-92
2022/09/09 00:02:05;;;;;;;;;;;20.70;97.40;20.80;99390.00;;;;347021;28;82501;-92
2022/09/09 00:02:24;;;;;;;;;;;20.70;97.30;20.90;99379.00;;;;348337;28;86740;-91
2022/09/09 00:02:38;;;;;;;;;;;20.70;97.50;21.00;99384.00;;;;348316;28;82533;-91
2022/09/09 00:03:19;;;;;;;;;;;20.70;97.20;20.90;99388.00;;;;348173;28;87574;-91
2022/09/09 00:03:46;;;;;;;;;;;20.70;97.20;20.80;99383.00;;;;346898;28;83487;-90
2022/09/09 00:03:58;;;;;;;;;;;20.70;97.10;20.90;99382.00;;;;349443;27;87509;-90
2022/09/09 00:04:18;;;;;;;;;;;20.70;97.30;20.90;99385.00;;;;346248;28;83583;-92
2022/09/09 00:04:33;;;;;;;;;;;20.70;97.20;20.90;99382.00;;;;346049;28;87256;-91
2022/09/09 00:05:08;;;;;;;;;;;20.70;97.30;20.70;99380.00;;;;346111;28;82508;-92
2022/09/09 00:05:34;;;;;;;;;;;20.70;97.60;20.80;99377.00;;;;345862;28;86078;-91
2022/09/09 00:05:53;;;;;;;;;;;20.70;97.60;20.80;99385.00;;;;346309;28;83539;-91
2022/09/09 00:06:11;;;;;;;;;;;20.70;97.80;20.80;99386.00;;;;347494;28;84828;-91
2022/09/09 00:06:28;;;;;;;;;;;20.70;97.70;20.90;99381.00;;;;347598;28;83381;-91
2022/09/09 00:06:58;;;;;;;;;;;20.70;97.40;20.90;99386.00;;;;345998;28;87165;-92
2022/09/09 00:07:21;;;;;;;;;;;20.70;97.50;20.90;99383.00;;;;344695;28;83582;-91
2022/09/09 00:07:49;;;;;;;;;;;20.70;97.50;20.90;99387.00;;;;344386;28;86333;-92
2022/09/09 00:08:03;;;;;;;;;;;20.70;97.40;20.90;99377.00;;;;344653;28;82580;-91
2022/09/09 00:08:19;;;;;;;;;;;20.70;97.50;20.90;99385.00;;;;347200;28;85490;-91
2022/09/09 00:08:54;;;;;;;;;;;20.70;97.40;20.90;99385.00;;;;348899;27;83480;-91
2022/09/09 00:09:19;;;;;;;;;;;20.70;97.50;20.80;99382.00;;;;346951;28;85710;-91
2022/09/09 00:09:39;;;;;;;;;;;20.70;97.70;20.90;99378.00;;;;346169;28;82577;-92
2022/09/09 00:09:53;;;;;;;;;;;20.70;97.40;20.90;99385.00;;;;348913;27;86520;-92
2022/09/09 00:10:17;;;;;;;;;;;20.70;97.30;20.80;99384.00;;;;347416;28;82550;-91
2022/09/09 00:10:36;;;;;;;;;;;20.70;97.30;20.80;99379.00;;;;345619;28;90322;-91
2022/09/09 00:10:53;;;;;;;;;;;20.70;97.60;20.80;99384.00;;;;348906;27;83398;-92
2022/09/09 00:11:05;;;;;;;;;;;20.70;97.50;20.80;99377.00;;;;346829;28;89892;-91
2022/09/09 00:11:19;;;;;;;;;;;20.70;97.70;20.80;99380.00;;;;347493;28;83354;-91
2022/09/09 00:11:40;;;;;;;;;;;20.70;97.60;20.80;99377.00;;;;347034;28;92407;-92
2022/09/09 00:11:56;;;;;;;;;;;20.70;97.60;20.80;99376.00;;;;344588;28;82647;-91
2022/09/09 00:12:12;;;;;;;;;;;20.60;97.60;20.80;99374.00;;;;347008;27;91455;-92
2022/09/09 00:12:34;;;;;;;;;;;20.60;97.50;20.90;99380.00;;;;348920;27;82470;-91
2022/09/09 00:13:15;;;;;;;;;;;20.60;97.60;20.90;99380.00;;;;344329;28;91127;-92
2022/09/09 00:13:37;;;;;;;;;;;20.70;97.70;20.90;99389.00;;;;347143;28;83496;-92
2022/09/09 00:13:53;;;;;;;;;;;20.70;97.70;20.90;99376.00;;;;344352;28;91326;-91
2022/09/09 00:14:11;;;;;;;;;;;20.60;97.60;20.90;99377.00;;;;344729;28;83459;-92
2022/09/09 00:14:32;;;;;;;;;;;20.60;97.80;20.90;99376.00;;;;347106;28;91392;-91
2022/09/09 00:15:02;;;;;;;;;;;20.60;97.70;20.70;99384.00;;;;346148;28;82549;-92
2022/09/09 00:15:21;;;;;;;;;;;20.60;97.80;20.60;99375.00;;;;345599;28;91242;-91
2022/09/09 00:15:56;;;;;;;;;;;20.60;98.20;20.60;99382.00;;;;346208;28;83482;-92
2022/09/09 00:16:16;;;;;;;;;;;20.50;98.10;20.50;99388.00;;;;345512;28;89498;-91
2022/09/09 00:16:28;;;;;;;;;;;20.50;98.10;20.60;99375.00;;;;346183;28;82559;-91
2022/09/09 00:16:41;;;;;;;;;;;20.50;98.30;20.60;99378.00;;;;347090;28;91412;-91
2022/09/09 00:16:55;;;;;;;;;;;20.50;98.10;20.60;99376.00;;;;344834;28;82624;-91
2022/09/09 00:17:15;;;;;;;;;;;20.50;97.90;20.60;99383.00;;;;347128;28;91259;-91
2022/09/09 00:18:09;;;;;;;;;;;20.50;98.00;20.60;99382.00;;;;346001;28;83487;-91
2022/09/09 00:18:42;;;;;;;;;;;20.50;98.10;20.70;99386.00;;;;348453;27;89536;-92
2022/09/09 00:19:00;;;;;;;;;;;20.50;98.30;20.60;99378.00;;;;347521;28;83446;-92
2022/09/09 00:19:31;;;;;;;;;;;20.50;98.40;20.60;99384.00;;;;348423;27;92643;-91
2022/09/09 00:20:00;;;;;;;;;;;20.50;98.50;20.50;99383.00;;;;347626;28;83388;-91
2022/09/09 00:20:33;;;;;;;;;;;20.50;98.40;20.50;99382.00;;;;345524;28;91443;-92
2022/09/09 00:21:06;;;;;;;;;;;20.50;98.40;20.70;99383.00;;;;348528;27;83555;-91
2022/09/09 00:21:17;;;;;;;;;;;20.50;98.10;20.70;99382.00;;;;346804;28;90735;-91
2022/09/09 00:21:37;;;;;;;;;;;20.50;98.00;20.50;99378.00;;;;346153;28;83394;-92
2022/09/09 00:21:54;;;;;;;;;;;20.50;98.20;20.50;99380.00;;;;345679;28;91445;-91
2022/09/09 00:22:13;;;;;;;;;;;20.50;98.40;20.50;99384.00;;;;348814;27;84029;-91
2022/09/09 00:22:26;;;;;;;;;;;20.50;98.30;20.60;99372.00;;;;347188;28;88998;-92
2022/09/09 00:22:38;;;;;;;;;;;20.50;98.10;20.60;99381.00;;;;346020;28;82517;-91
2022/09/09 00:23:24;;;;;;;;;;;20.40;98.20;20.50;99381.00;;;;348471;27;92647;-92
2022/09/09 00:23:39;;;;;;;;;;;20.50;98.10;20.50;99381.00;;;;346097;28;83474;-91
2022/09/09 00:23:51;;;;;;;;;;;20.40;98.30;20.50;99376.00;;;;344290;28;91418;-91
2022/09/09 00:24:29;;;;;;;;;;;20.40;98.50;20.60;99381.00;;;;347352;28;83272;-92
2022/09/09 00:24:43;;;;;;;;;;;20.40;98.30;20.60;99374.00;;;;346999;28;90906;-92
2022/09/09 00:24:56;;;;;;;;;;;20.40;98.20;20.50;99376.00;;;;346177;28;83455;-91
2022/09/09 00:25:12;;;;;;;;;;;20.40;98.50;20.50;99375.00;;;;344357;28;87781;-91
2022/09/09 00:25:34;;;;;;;;;;;20.40;98.40;20.60;99378.00;;;;348677;27;83088;-91
2022/09/09 00:26:30;;;;;;;;;;;20.40;98.50;20.50;99373.00;;;;345704;28;91273;-91
2022/09/09 00:26:49;;;;;;;;;;;20.40;98.20;20.50;99381.00;;;;346039;28;82501;-92
2022/09/09 00:27:06;;;;;;;;;;;20.40;98.20;20.50;99380.00;;;;347053;28;91375;-91
2022/09/09 00:27:32;;;;;;;;;;;20.40;98.20;20.60;99379.00;;;;345860;28;84174;-92
2022/09/09 00:27:45;;;;;;;;;;;20.40;98.10;20.70;99381.00;;;;345780;28;90113;-92
2022/09/09 00:27:57;;;;;;;;;;;20.40;98.20;20.70;99380.00;;;;348966;27;82495;-91
2022/09/09 00:28:17;;;;;;;;;;;20.40;98.20;20.80;99379.00;;;;345633;28;90501;-91
2022/09/09 00:28:32;;;;;;;;;;;20.40;98.30;20.60;99374.00;;;;347487;28;83533;-91
2022/09/09 00:29:07;;;;;;;;;;;20.40;98.30;20.50;99382.00;;;;345667;28;91504;-91
2022/09/09 00:29:27;;;;;;;;;;;20.40;98.40;20.40;99378.00;;;;345804;28;83541;-91
2022/09/09 00:29:43;;;;;;;;;;;20.40;98.60;20.30;99375.00;;;;345539;28;89779;-91
2022/09/09 00:30:22;;;;;;;;;;;20.40;98.70;20.40;99379.00;;;;346155;28;82518;-92
2022/09/09 00:30:34;;;;;;;;;;;20.40;98.80;20.40;99382.00;;;;342573;28;90060;-91
2022/09/09 00:30:49;;;;;;;;;;;20.40;98.70;20.50;99378.00;;;;347465;27;82535;-92
2022/09/09 00:31:15;;;;;;;;;;;20.40;98.70;20.60;99376.00;;;;346935;28;89988;-91
2022/09/09 00:31:28;;;;;;;;;;;20.40;98.70;20.40;99381.00;;;;345996;28;82561;-91
2022/09/09 00:31:40;;;;;;;;;;;20.40;98.70;20.30;99377.00;;;;347120;28;90451;-91
2022/09/09 00:31:54;;;;;;;;;;;20.30;98.70;20.30;99381.00;;;;346166;28;83520;-91
2022/09/09 00:32:17;;;;;;;;;;;20.30;98.70;20.30;99376.00;;;;345566;28;91140;-91
2022/09/09 00:32:29;;;;;;;;;;;20.30;98.70;20.20;99370.00;;;;347442;28;82599;-91
2022/09/09 00:32:41;;;;;;;;;;;20.30;98.60;20.20;99376.00;;;;346808;28;90240;-92
2022/09/09 00:32:57;;;;;;;;;;;20.30;98.70;20.30;99381.00;;;;347575;28;82531;-91
2022/09/09 00:33:15;;;;;;;;;;;20.30;98.70;20.40;99371.00;;;;345531;28;92201;-92
2022/09/09 00:33:26;;;;;;;;;;;20.30;98.60;20.50;99367.00;;;;345936;28;82681;-91
2022/09/09 00:33:38;;;;;;;;;;;20.30;98.60;20.50;99367.00;;;;345585;28;90172;-91
2022/09/09 00:33:50;;;;;;;;;;;20.30;98.50;20.50;99371.00;;;;347623;28;82521;-91
2022/09/09 00:34:12;;;;;;;;;;;20.30;98.50;20.30;99373.00;;;;347008;28;90264;-91
2022/09/09 00:34:26;;;;;;;;;;;20.30;98.60;20.30;99370.00;;;;347564;28;82484;-91
2022/09/09 00:34:38;;;;;;;;;;;20.30;98.70;20.30;99379.00;;;;346989;28;90500;-91
2022/09/09 00:35:03;;;;;;;;;;;20.30;98.70;20.30;99372.00;;;;346165;28;82537;-91
2022/09/09 00:35:22;;;;;;;;;;;20.20;98.80;20.40;99380.00;;;;344353;28;90440;-91
2022/09/09 00:35:35;;;;;;;;;;;20.30;98.60;20.30;99374.00;;;;346166;28;83536;-91
2022/09/09 00:35:49;;;;;;;;;;;20.30;98.90;20.50;99379.00;;;;344281;28;92455;-91
2022/09/09 00:36:00;;;;;;;;;;;20.20;98.70;20.40;99368.00;;;;346038;28;83388;-92
2022/09/09 00:36:15;;;;;;;;;;;20.20;98.80;20.20;99377.00;;;;344265;28;91381;-91
2022/09/09 00:36:28;;;;;;;;;;;20.20;98.80;20.20;99372.00;;;;346098;28;83483;-91
2022/09/09 00:36:41;;;;;;;;;;;20.20;98.80;20.20;99367.00;;;;346998;28;90827;-91
2022/09/09 00:36:53;;;;;;;;;;;20.20;98.80;20.20;99364.00;;;;344686;28;83185;-92
2022/09/09 00:37:05;;;;;;;;;;;20.20;98.90;20.30;99373.00;;;;347115;28;91118;-92
2022/09/09 00:37:17;;;;;;;;;;;20.20;98.80;20.30;99377.00;;;;346036;28;82877;-91
2022/09/09 00:37:31;;;;;;;;;;;20.20;98.70;20.30;99374.00;;;;345455;28;90484;-92
2022/09/09 00:37:44;;;;;;;;;;;20.20;98.60;20.30;99377.00;;;;347499;28;83472;-91
2022/09/09 00:38:10;;;;;;;;;;;20.20;98.70;20.30;99363.00;;;;345926;28;91379;-91
2022/09/09 00:38:38;;;;;;;;;;;20.20;98.70;20.30;99373.00;;;;347715;28;82525;-92
2022/09/09 00:38:52;;;;;;;;;;;20.20;98.70;20.40;99375.00;;;;348648;27;90203;-91
2022/09/09 00:39:04;;;;;;;;;;;20.20;98.50;20.50;99376.00;;;;347631;28;82667;-91
2022/09/09 00:39:27;;;;;;;;;;;20.20;98.50;20.40;99383.00;;;;346764;28;91314;-92
2022/09/09 00:39:42;;;;;;;;;;;20.20;98.50;20.30;99382.00;;;;347505;28;83531;-91
2022/09/09 00:39:56;;;;;;;;;;;20.20;98.80;20.40;99373.00;;;;347569;28;91738;-91
2022/09/09 00:40:22;;;;;;;;;;;20.20;98.70;20.40;99375.00;;;;346659;28;82415;-91
2022/09/09 00:40:37;;;;;;;;;;;20.20;98.60;20.40;99378.00;;;;348975;27;90170;-91
2022/09/09 00:40:52;;;;;;;;;;;20.20;98.50;20.40;99373.00;;;;349421;28;82431;-92
2022/09/09 00:41:11;;;;;;;;;;;20.20;98.50;20.30;99376.00;;;;348969;27;91364;-90
2022/09/09 00:41:35;;;;;;;;;;;20.20;98.70;20.40;99384.00;;;;349078;27;82564;-91
2022/09/09 00:42:12;;;;;;;;;;;20.20;98.70;20.40;99375.00;;;;348834;27;90193;-91
2022/09/09 00:42:40;;;;;;;;;;;20.20;98.60;20.30;99371.00;;;;349196;28;82643;-91
2022/09/09 00:43:06;;;;;;;;;;;20.20;98.60;20.40;99377.00;;;;348200;27;89834;-91
2022/09/09 00:43:32;;;;;;;;;;;20.20;98.60;20.40;99377.00;;;;349947;27;83452;-91
2022/09/09 00:43:43;;;;;;;;;;;20.20;98.60;20.40;99375.00;;;;346803;28;91129;-92
2022/09/09 00:44:36;;;;;;;;;;;20.20;98.70;20.40;99370.00;;;;347225;28;82570;-91
2022/09/09 00:44:52;;;;;;;;;;;20.20;98.70;20.40;99377.00;;;;338758;28;91627;-91
2022/09/09 00:45:28;;;;;;;;;;;20.20;98.80;20.50;99373.00;;;;337831;28;83817;-92
2022/09/09 00:46:02;;;;;;;;;;;20.20;99.10;20.50;99371.00;;;;338382;28;91740;-91
2022/09/09 00:46:32;;;;;;;;;;;20.20;98.80;20.60;99364.00;;;;337826;28;83394;-91
2022/09/09 00:46:59;;;;;;;;;;;20.20;98.90;20.60;99374.00;;;;338557;28;90291;-91
2022/09/09 00:47:36;;;;;;;;;;;20.30;98.90;20.50;99376.00;;;;340289;28;83627;-92
2022/09/09 00:47:52;;;;;;;;;;;20.20;98.80;20.30;99368.00;;;;338824;28;89065;-91
2022/09/09 00:48:10;;;;;;;;;;;20.20;98.80;20.30;99371.00;;;;340424;28;82561;-91
2022/09/09 00:48:22;;;;;;;;;;;20.20;99.00;20.20;99370.00;;;;340090;28;91362;-91
2022/09/09 00:48:59;;;;;;;;;;;20.20;99.10;20.20;99366.00;;;;346166;28;82466;-92
2022/09/09 00:49:36;;;;;;;;;;;20.20;99.20;20.30;99378.00;;;;347051;28;90047;-91
2022/09/09 00:49:47;;;;;;;;;;;20.20;99.40;20.20;99366.00;;;;340396;28;83577;-91
2022/09/09 00:50:24;;;;;;;;;;;20.20;99.30;20.20;99374.00;;;;340011;28;92439;-91
2022/09/09 00:50:43;;;;;;;;;;;20.20;99.30;20.20;99375.00;;;;339130;28;83358;-91
2022/09/09 00:51:00;;;;;;;;;;;20.20;99.40;20.20;99372.00;;;;340225;28;90327;-92
2022/09/09 00:51:23;;;;;;;;;;;20.20;99.50;20.20;99371.00;;;;341983;28;83574;-91
2022/09/09 00:51:38;;;;;;;;;;;20.10;99.40;20.20;99369.00;;;;340127;28;91607;-91
2022/09/09 00:52:12;;;;;;;;;;;20.10;99.30;20.20;99369.00;;;;341943;28;82688;-92
2022/09/09 00:52:44;;;;;;;;;;;20.10;99.30;20.30;99373.00;;;;338641;28;91501;-92
2022/09/09 00:53:31;;;;;;;;;;;20.10;99.00;20.30;99370.00;;;;340866;28;82366;-91
2022/09/09 00:53:55;;;;;;;;;;;20.10;99.00;20.30;99375.00;;;;341871;28;88950;-91
2022/09/09 00:54:30;;;;;;;;;;;20.10;99.00;20.30;99371.00;;;;341087;28;84130;-92
2022/09/09 00:54:44;;;;;;;;;;;20.10;99.00;20.40;99380.00;;;;337049;28;93111;-91
2022/09/09 00:55:40;;;;;;;;;;;20.10;99.10;20.40;99369.00;;;;336675;28;82573;-92
2022/09/09 00:55:59;;;;;;;;;;;20.10;99.20;20.40;99371.00;;;;338952;28;90213;-91
2022/09/09 00:56:14;;;;;;;;;;;20.10;99.40;20.30;99380.00;;;;340592;28;83588;-92
2022/09/09 00:56:41;;;;;;;;;;;20.10;99.30;20.30;99375.00;;;;338900;28;90290;-91
2022/09/09 00:57:31;;;;;;;;;;;20.10;99.40;20.20;99372.00;;;;337921;28;83538;-92
2022/09/09 00:57:42;;;;;;;;;;;20.10;99.60;20.20;99375.00;;;;337498;28;90137;-90
2022/09/09 00:57:55;;;;;;;;;;;20.10;99.50;20.20;99365.00;;;;339288;28;83559;-92
2022/09/09 00:58:08;;;;;;;;;;;20.00;99.20;20.20;99371.00;;;;337302;28;90500;-92
2022/09/09 00:58:19;;;;;;;;;;;20.10;99.20;20.30;99370.00;;;;337930;28;83539;-91
2022/09/09 00:58:32;;;;;;;;;;;20.00;99.10;20.30;99372.00;;;;337479;28;92755;-92
2022/09/09 00:58:51;;;;;;;;;;;20.10;99.20;20.40;99368.00;;;;339257;28;83289;-92
2022/09/09 00:59:11;;;;;;;;;;;20.00;99.20;20.20;99368.00;;;;340188;28;91838;-91
2022/09/09 00:59:36;;;;;;;;;;;20.10;99.50;20.10;99375.00;;;;337905;28;83507;-92
2022/09/09 01:00:07;;;;;;;;;;;20.10;99.50;20.20;99369.00;;;;338819;28;91236;-92
2022/09/09 01:00:23;;;;;;;;;;;20.10;99.60;20.30;99366.00;;;;339213;28;84350;-91
2022/09/09 01:01:00;;;;;;;;;;;20.10;99.40;20.30;99370.00;;;;341544;28;91273;-92
2022/09/09 01:01:12;;;;;;;;;;;20.10;99.50;20.10;99370.00;;;;337996;28;83416;-92
2022/09/09 01:01:24;;;;;;;;;;;20.00;99.60;20.20;99368.00;;;;338734;28;91481;-91
2022/09/09 01:01:36;;;;;;;;;;;20.00;99.50;20.10;99370.00;;;;339254;28;83331;-91
2022/09/09 01:01:48;;;;;;;;;;;20.00;99.50;20.20;99360.00;;;;337395;28;92373;-91
2022/09/09 01:02:01;;;;;;;;;;;20.00;99.50;20.20;99372.00;;;;341864;28;83429;-91
2022/09/09 01:02:32;;;;;;;;;;;20.00;99.50;20.10;99373.00;;;;340121;28;91370;-91
2022/09/09 01:02:49;;;;;;;;;;;20.00;99.70;20.00;99374.00;;;;337884;28;83446;-91
2022/09/09 01:03:17;;;;;;;;;;;20.00;99.70;20.10;99370.00;;;;338788;28;91426;-91
2022/09/09 01:03:45;;;;;;;;;;;20.00;99.70;19.90;99375.00;;;;339212;28;83356;-91
2022/09/09 01:04:00;;;;;;;;;;;20.00;99.80;20.00;99371.00;;;;338826;28;91476;-91
2022/09/09 01:04:16;;;;;;;;;;;19.90;99.70;20.10;99370.00;;;;339071;28;83512;-92
2022/09/09 01:04:32;;;;;;;;;;;19.90;99.70;20.00;99383.00;;;;337439;28;91980;-91
2022/09/09 01:04:44;;;;;;;;;;;19.90;99.80;20.00;99375.00;;;;339226;28;83423;-91
2022/09/09 01:05:00;;;;;;;;;;;19.90;99.50;20.10;99374.00;;;;337499;28;91463;-91
2022/09/09 01:05:15;;;;;;;;;;;19.90;99.40;20.10;99371.00;;;;339261;28;82488;-91
2022/09/09 01:05:29;;;;;;;;;;;19.90;99.40;20.10;99368.00;;;;340089;28;90860;-91
2022/09/09 01:05:50;;;;;;;;;;;19.90;99.40;20.10;99368.00;;;;340713;28;83367;-92
2022/09/09 01:06:23;;;;;;;;;;;19.90;99.30;20.00;99370.00;;;;338737;28;91675;-91
2022/09/09 01:06:37;;;;;;;;;;;19.90;99.60;20.00;99377.00;;;;340644;28;82649;-91
2022/09/09 01:06:52;;;;;;;;;;;19.90;99.70;20.00;99377.00;;;;337407;28;91767;-91
2022/09/09 01:07:11;;;;;;;;;;;19.90;99.60;20.10;99374.00;;;;337946;28;84104;-92
2022/09/09 01:07:23;;;;;;;;;;;19.90;99.40;20.20;99373.00;;;;340112;28;90478;-92
2022/09/09 01:07:34;;;;;;;;;;;19.90;99.40;20.20;99376.00;;;;339219;28;83521;-91
2022/09/09 01:07:47;;;;;;;;;;;19.90;99.40;20.20;99374.00;;;;337450;28;92216;-91
2022/09/09 01:08:03;;;;;;;;;;;19.90;99.30;20.10;99370.00;;;;337980;28;83567;-92
2022/09/09 01:08:43;;;;;;;;;;;19.90;99.50;20.00;99378.00;;;;338905;28;87964;-92
2022/09/09 01:09:18;;;;;;;;;;;19.90;99.70;20.00;99380.00;;;;336216;28;82706;-91
2022/09/09 01:09:54;;;;;;;;;;;19.90;99.50;20.10;99370.00;;;;338997;28;90292;-91
2022/09/09 01:10:14;;;;;;;;;;;19.90;99.30;20.00;99380.00;;;;340492;28;83186;-91
2022/09/09 01:10:50;;;;;;;;;;;19.90;99.30;20.00;99379.00;;;;338877;28;91414;-91
2022/09/09 01:11:02;;;;;;;;;;;19.90;99.50;20.10;99378.00;;;;339079;28;82637;-92
2022/09/09 01:11:25;;;;;;;;;;;19.90;99.30;20.10;99374.00;;;;339989;28;90879;-91
2022/09/09 01:12:00;;;;;;;;;;;19.90;99.40;20.10;99375.00;;;;338018;28;82520;-91
2022/09/09 01:12:16;;;;;;;;;;;19.90;99.60;20.10;99371.00;;;;338619;28;91290;-92
2022/09/09 01:12:46;;;;;;;;;;;19.90;99.70;20.00;99382.00;;;;336671;28;82563;-91
2022/09/09 01:12:58;;;;;;;;;;;19.90;99.80;20.00;99366.00;;;;338372;28;90324;-91
2022/09/09 01:13:14;;;;;;;;;;;19.90;99.70;20.00;99379.00;;;;340646;28;83542;-91
2022/09/09 01:13:31;;;;;;;;;;;19.90;99.90;19.90;99382.00;;;;338733;28;91481;-91
2022/09/09 01:13:43;;;;;;;;;;;19.90;99.90;19.70;99372.00;;;;337940;28;83592;-91
2022/09/09 01:14:25;;;;;;;;;;;19.80;99.90;19.60;99383.00;;;;338781;28;91852;-91
2022/09/09 01:14:36;;;;;;;;;;;19.80;99.90;19.60;99371.00;;;;337850;28;82593;-92
2022/09/09 01:14:51;;;;;;;;;;;19.70;99.60;19.60;99372.00;;;;338811;28;91313;-91
2022/09/09 01:15:11;;;;;;;;;;;19.70;99.60;19.70;99376.00;;;;336509;28;82702;-92
2022/09/09 01:15:27;;;;;;;;;;;19.70;99.60;19.80;99375.00;;;;337460;28;91313;-92
2022/09/09 01:15:39;;;;;;;;;;;19.70;99.70;19.70;99371.00;;;;336584;28;83425;-92
2022/09/09 01:15:53;;;;;;;;;;;19.70;99.80;19.70;99375.00;;;;334937;29;91869;-91
2022/09/09 01:16:11;;;;;;;;;;;19.70;99.90;19.70;99374.00;;;;337353;28;82664;-91
2022/09/09 01:16:23;;;;;;;;;;;19.70;99.90;19.70;99377.00;;;;333573;28;90431;-91
2022/09/09 01:16:34;;;;;;;;;;;19.60;99.90;19.80;99375.00;;;;336618;28;83491;-91
2022/09/09 01:16:46;;;;;;;;;;;19.60;99.80;19.90;99377.00;;;;336069;28;90439;-91
2022/09/09 01:17:15;;;;;;;;;;;19.70;99.80;19.90;99370.00;;;;335204;28;83529;-92
2022/09/09 01:17:36;;;;;;;;;;;19.70;99.80;19.80;99379.00;;;;336113;28;89526;-91
2022/09/09 01:17:53;;;;;;;;;;;19.70;99.80;19.70;99377.00;;;;337997;28;83443;-92
2022/09/09 01:18:10;;;;;;;;;;;19.70;99.80;19.80;99369.00;;;;338612;28;92348;-92
2022/09/09 01:18:23;;;;;;;;;;;19.70;99.80;19.70;99365.00;;;;339103;28;82570;-92
2022/09/09 01:18:46;;;;;;;;;;;19.60;99.70;19.70;99374.00;;;;336198;28;91614;-92
2022/09/09 01:18:58;;;;;;;;;;;19.70;99.90;19.60;99372.00;;;;335351;29;83410;-92
2022/09/09 01:19:10;;;;;;;;;;;19.70;99.90;19.70;99378.00;;;;336122;28;89900;-91
2022/09/09 01:19:39;;;;;;;;;;;19.60;99.90;19.60;99371.00;;;;335122;28;83549;-91
2022/09/09 01:20:06;;;;;;;;;;;19.60;99.90;19.70;99371.00;;;;336210;28;91657;-91
2022/09/09 01:20:25;;;;;;;;;;;19.60;99.90;19.70;99381.00;;;;337975;28;82492;-91
2022/09/09 01:20:57;;;;;;;;;;;19.60;99.90;19.80;99375.00;;;;334713;29;91316;-91
2022/09/09 01:21:26;;;;;;;;;;;19.60;99.90;19.90;99378.00;;;;335299;29;83508;-91
2022/09/09 01:21:50;;;;;;;;;;;19.60;99.90;19.90;99378.00;;;;334614;29;92651;-91
2022/09/09 01:22:07;;;;;;;;;;;19.60;99.90;19.80;99376.00;;;;336433;28;83641;-91
2022/09/09 01:22:35;;;;;;;;;;;19.60;99.90;19.80;99373.00;;;;338556;28;90518;-91
2022/09/09 01:23:08;;;;;;;;;;;19.60;99.90;19.80;99379.00;;;;339233;28;83441;-92
2022/09/09 01:23:42;;;;;;;;;;;19.60;99.90;19.80;99374.00;;;;337406;28;91236;-91
2022/09/09 01:24:17;;;;;;;;;;;19.60;99.90;19.80;99378.00;;;;337957;28;83429;-91
2022/09/09 01:24:40;;;;;;;;;;;19.60;99.90;19.90;99372.00;;;;336250;28;89914;-91
2022/09/09 01:25:25;;;;;;;;;;;19.60;99.90;19.70;99376.00;;;;337928;28;82542;-91
2022/09/09 01:25:43;;;;;;;;;;;19.60;99.90;19.90;99383.00;;;;334838;28;89744;-91
2022/09/09 01:26:14;;;;;;;;;;;19.60;99.90;19.80;99377.00;;;;336700;28;82548;-92
2022/09/09 01:26:44;;;;;;;;;;;19.60;99.90;19.80;99384.00;;;;337373;28;91296;-91
2022/09/09 01:27:00;;;;;;;;;;;19.60;99.90;19.80;99375.00;;;;339110;28;83437;-92
2022/09/09 01:27:11;;;;;;;;;;;19.60;99.90;19.80;99373.00;;;;334885;29;91885;-91
2022/09/09 01:27:23;;;;;;;;;;;19.60;99.90;19.80;99371.00;;;;333948;29;83647;-92
2022/09/09 01:27:35;;;;;;;;;;;19.60;99.90;19.80;99378.00;;;;337517;28;91677;-92
2022/09/09 01:27:48;;;;;;;;;;;19.60;99.90;19.70;99378.00;;;;339252;28;83564;-92
2022/09/09 01:28:02;;;;;;;;;;;19.60;99.90;19.60;99379.00;;;;336090;28;91199;-91
2022/09/09 01:28:19;;;;;;;;;;;19.60;99.90;19.70;99382.00;;;;336521;28;82747;-91
2022/09/09 01:28:31;;;;;;;;;;;19.60;99.90;19.70;99378.00;;;;338858;28;91596;-91
2022/09/09 01:28:44;;;;;;;;;;;19.60;99.90;19.70;99380.00;;;;336522;28;83361;-91
2022/09/09 01:28:56;;;;;;;;;;;19.60;99.90;19.70;99373.00;;;;335985;28;92249;-91
2022/09/09 01:29:08;;;;;;;;;;;19.50;99.90;19.60;99376.00;;;;339334;28;82495;-91
2022/09/09 01:29:21;;;;;;;;;;;19.50;99.90;19.60;99384.00;;;;337373;28;91043;-91
2022/09/09 01:29:33;;;;;;;;;;;19.50;99.90;19.50;99373.00;;;;335341;29;82631;-91
2022/09/09 01:29:44;;;;;;;;;;;19.50;99.90;19.50;99373.00;;;;336249;28;90748;-92
2022/09/09 01:29:56;;;;;;;;;;;19.50;99.90;19.60;99370.00;;;;337987;28;83389;-91
2022/09/09 01:30:15;;;;;;;;;;;19.50;99.90;19.70;99381.00;;;;337522;28;90907;-91
2022/09/09 01:30:27;;;;;;;;;;;19.50;99.90;19.70;99372.00;;;;336602;28;83458;-91
2022/09/09 01:30:40;;;;;;;;;;;19.50;99.90;19.70;99365.00;;;;336166;28;91307;-91
2022/09/09 01:30:52;;;;;;;;;;;19.50;99.90;19.80;99370.00;;;;335319;29;82720;-91
2022/09/09 01:31:04;;;;;;;;;;;19.50;99.90;19.80;99371.00;;;;336159;28;92116;-91
2022/09/09 01:31:37;;;;;;;;;;;19.50;99.90;19.60;99377.00;;;;339300;28;82320;-92
2022/09/09 01:31:55;;;;;;;;;;;19.50;99.90;19.80;99381.00;;;;337598;28;91644;-91
2022/09/09 01:32:44;;;;;;;;;;;19.50;99.90;19.60;99371.00;;;;336169;28;83603;-92
2022/09/09 01:33:00;;;;;;;;;;;19.50;99.90;19.60;99375.00;;;;336268;28;92396;-91
2022/09/09 01:33:16;;;;;;;;;;;19.50;99.90;19.60;99372.00;;;;334024;29;83518;-91
2022/09/09 01:33:28;;;;;;;;;;;19.50;99.90;19.80;99371.00;;;;333680;28;90169;-91
2022/09/09 01:33:40;;;;;;;;;;;19.50;99.90;19.80;99374.00;;;;333656;29;83374;-91
2022/09/09 01:33:52;;;;;;;;;;;19.50;99.90;19.80;99366.00;;;;333143;28;91293;-91
2022/09/09 01:34:13;;;;;;;;;;;19.50;99.90;19.80;99369.00;;;;336410;28;82537;-90
2022/09/09 01:34:28;;;;;;;;;;;19.50;99.90;19.70;99364.00;;;;333344;29;92361;-91
2022/09/09 01:34:40;;;;;;;;;;;19.50;99.90;19.70;99363.00;;;;336307;28;82576;-91
2022/09/09 01:34:51;;;;;;;;;;;19.50;99.90;19.70;99366.00;;;;333346;29;92047;-91
2022/09/09 01:35:04;;;;;;;;;;;19.50;99.90;19.70;99361.00;;;;335186;29;82650;-91
2022/09/09 01:35:31;;;;;;;;;;;19.50;99.90;19.60;99368.00;;;;332162;29;90203;-91
2022/09/09 01:36:18;;;;;;;;;;;19.50;99.90;19.70;99369.00;;;;333666;29;82420;-91
2022/09/09 01:36:42;;;;;;;;;;;19.50;99.90;19.60;99369.00;;;;342727;28;91071;-91
2022/09/09 01:37:07;;;;;;;;;;;19.50;99.90;19.60;99378.00;;;;339247;28;83533;-91
2022/09/09 01:37:19;;;;;;;;;;;19.40;99.90;19.60;99366.00;;;;337484;28;89078;-91
2022/09/09 01:37:31;;;;;;;;;;;19.40;99.90;19.60;99364.00;;;;339136;28;82627;-92
2022/09/09 01:37:42;;;;;;;;;;;19.40;99.90;19.60;99379.00;;;;341218;28;90364;-91
2022/09/09 01:37:54;;;;;;;;;;;19.40;99.90;19.60;99369.00;;;;340562;28;83453;-91
2022/09/09 01:38:06;;;;;;;;;;;19.40;99.90;19.60;99367.00;;;;338703;28;91365;-90
2022/09/09 01:38:18;;;;;;;;;;;19.40;99.90;19.60;99365.00;;;;340594;28;83489;-91
2022/09/09 01:38:30;;;;;;;;;;;19.40;99.90;19.50;99378.00;;;;341537;28;90354;-91
2022/09/09 01:38:42;;;;;;;;;;;19.40;99.90;19.50;99370.00;;;;340431;28;83328;-91
2022/09/09 01:38:53;;;;;;;;;;;19.40;99.90;19.70;99367.00;;;;341487;28;91654;-90
2022/09/09 01:39:05;;;;;;;;;;;19.40;99.90;19.70;99367.00;;;;337990;28;83422;-92
2022/09/09 01:39:17;;;;;;;;;;;19.40;99.90;19.70;99371.00;;;;338896;28;90772;-91
2022/09/09 01:39:28;;;;;;;;;;;19.40;99.90;19.60;99370.00;;;;340597;28;83615;-92
2022/09/09 01:39:43;;;;;;;;;;;19.40;99.90;19.60;99369.00;;;;340104;28;92679;-91
2022/09/09 01:39:54;;;;;;;;;;;19.40;99.90;19.50;99371.00;;;;340647;28;83260;-92
2022/09/09 01:40:07;;;;;;;;;;;19.40;99.90;19.60;99367.00;;;;340081;28;91364;-92
2022/09/09 01:40:19;;;;;;;;;;;19.40;99.90;19.60;99376.00;;;;337853;28;83346;-91
2022/09/09 01:40:30;;;;;;;;;;;19.40;99.90;19.60;99379.00;;;;337424;28;92115;-91